createdAt,value
2023-03-30T00:00:00.000Z,5.11
2023-03-30T00:15:00.000Z,5.88
2023-03-30T00:30:00.000Z,5.26
2023-03-30T00:45:00.000Z,5.73
2023-03-30T01:00:00.000Z,5.05
2023-03-30T01:15:00.000Z,5.59
2023-03-30T01:30:00.000Z,5.14
2023-03-30T01:45:00.000Z,5.52
2023-03-30T02:00:00.000Z,5.66
2023-03-30T02:15:00.000Z,5.56
2023-03-30T02:30:00.000Z,5.09
2023-03-30T02:45:00.000Z,5.94
2023-03-30T03:00:00.000Z,6.18
2023-03-30T03:15:00.000Z,6.92
2023-03-30T03:30:00.000Z,6.99
2023-03-30T03:45:00.000Z,7.29
2023-03-30T04:00:00.000Z,7.49
2023-03-30T04:15:00.000Z,7.2
2023-03-30T04:30:00.000Z,7.68
2023-03-30T04:45:00.000Z,7.48
2023-03-30T05:00:00.000Z,7.69
2023-03-30T05:15:00.000Z,7.74
2023-03-30T05:30:00.000Z,7.92
2023-03-30T05:45:00.000Z,8
2023-03-30T06:00:00.000Z,7.67
2023-03-30T06:15:00.000Z,7.64
2023-03-30T06:30:00.000Z,7.72
2023-03-30T06:45:00.000Z,7.61
2023-03-30T07:00:00.000Z,7.95
2023-03-30T07:15:00.000Z,8.4
2023-03-30T07:30:00.000Z,7.46
2023-03-30T07:45:00.000Z,7.6
2023-03-30T08:00:00.000Z,7.56
2023-03-30T08:15:00.000Z,7.73
2023-03-30T08:30:00.000Z,8.01
2023-03-30T08:45:00.000Z,7.39
2023-03-30T09:00:00.000Z,7.64
2023-03-30T09:15:00.000Z,7.41
2023-03-30T09:30:00.000Z,7.47
2023-03-30T09:45:00.000Z,7.36
2023-03-30T10:00:00.000Z,7.27
2023-03-30T10:15:00.000Z,7.69
2023-03-30T10:30:00.000Z,7.79
2023-03-30T10:45:00.000Z,7.72
2023-03-30T11:00:00.000Z,8.81
2023-03-30T11:15:00.000Z,7.93
2023-03-30T11:30:00.000Z,7.84
2023-03-30T11:45:00.000Z,8.6
2023-03-30T12:00:00.000Z,10.39
2023-03-30T12:15:00.000Z,10.8
2023-03-30T12:30:00.000Z,11.04
2023-03-30T12:45:00.000Z,19.73
2023-03-30T13:00:00.000Z,17.79
2023-03-30T13:15:00.000Z,13.19
2023-03-30T13:30:00.000Z,12.69
2023-03-30T13:45:00.000Z,13.87
2023-03-30T14:00:00.000Z,12.76
2023-03-30T14:15:00.000Z,11.36
2023-03-30T14:30:00.000Z,10.86
2023-03-30T14:45:00.000Z,11.02
2023-03-30T15:00:00.000Z,14.85
2023-03-30T15:15:00.000Z,17.71
2023-03-30T15:30:00.000Z,14.47
2023-03-30T15:45:00.000Z,13.2
2023-03-30T16:00:00.000Z,7.2
2023-03-30T16:15:00.000Z,11.41
2023-03-30T16:30:00.000Z,12.84
2023-03-30T16:45:00.000Z,7.65
2023-03-30T17:00:00.000Z,10.54
2023-03-30T17:15:00.000Z,9.52
2023-03-30T17:30:00.000Z,9.46
2023-03-30T17:45:00.000Z,8.08
2023-03-30T18:00:00.000Z,9.93
2023-03-30T18:15:00.000Z,10.39
2023-03-30T18:30:00.000Z,10.06
2023-03-30T18:45:00.000Z,10.79
2023-03-30T19:00:00.000Z,10.66
2023-03-30T19:15:00.000Z,10.58
2023-03-30T19:30:00.000Z,10.6
2023-03-30T19:45:00.000Z,10.07
2023-03-30T20:00:00.000Z,10.12
2023-03-30T20:15:00.000Z,9.13
2023-03-30T20:30:00.000Z,8.93
2023-03-30T20:45:00.000Z,9.09
2023-03-30T21:00:00.000Z,8.39
2023-03-30T21:15:00.000Z,9.05
2023-03-30T21:30:00.000Z,9.38
2023-03-30T21:45:00.000Z,15.38
2023-03-30T22:00:00.000Z,11.88
2023-03-30T22:15:00.000Z,9.76
2023-03-30T22:30:00.000Z,13.27
2023-03-30T22:45:00.000Z,15.42
2023-03-30T23:00:00.000Z,18.4
2023-03-30T23:15:00.000Z,14.09
2023-03-30T23:30:00.000Z,13.68
2023-03-30T23:45:00.000Z,14.29
